createdAt,value
2022-07-29T00:00:58.264Z,3.78
2022-07-29T00:03:24.696Z,4.55
2022-07-29T00:05:52.978Z,2.78
2022-07-29T00:08:19.681Z,3.00
2022-07-29T00:10:46.035Z,3.75
2022-07-29T00:13:12.404Z,2.72
2022-07-29T00:15:38.708Z,2.83
2022-07-29T00:18:05.141Z,3.88
2022-07-29T00:20:31.415Z,3.00
2022-07-29T00:22:57.816Z,4.47
2022-07-29T00:25:24.085Z,2.53
2022-07-29T00:27:50.388Z,3.03
2022-07-29T00:30:17.312Z,3.78
2022-07-29T00:32:43.642Z,3.28
2022-07-29T00:35:28.799Z,3.10
2022-07-29T00:37:55.031Z,2.88
2022-07-29T00:40:23.568Z,2.25
2022-07-29T00:42:50.832Z,3.85
2022-07-29T00:45:17.433Z,3.22
2022-07-29T00:47:43.864Z,4.05
2022-07-29T00:50:11.318Z,3.88
2022-07-29T00:52:38.452Z,2.83
2022-07-29T00:55:08.636Z,4.32
2022-07-29T00:57:35.995Z,3.42
2022-07-29T01:00:04.016Z,4.03
2022-07-29T01:02:30.323Z,3.85
2022-07-29T01:04:57.993Z,3.92
2022-07-29T01:07:25.520Z,4.28
2022-07-29T01:09:51.896Z,3.80
2022-07-29T01:12:22.411Z,7.53
2022-07-29T01:14:49.863Z,6.20
2022-07-29T01:17:18.884Z,4.70
2022-07-29T01:19:45.124Z,3.17
2022-07-29T01:22:31.640Z,3.75
2022-07-29T01:25:13.186Z,4.75
2022-07-29T01:27:45.709Z,3.28
2022-07-29T01:30:13.827Z,2.88
2022-07-29T01:32:43.708Z,2.83
2022-07-29T01:35:13.835Z,5.15
2022-07-29T01:37:49.606Z,2.80
2022-07-29T01:40:25.066Z,3.50
2022-07-29T01:42:53.179Z,5.85
2022-07-29T01:45:19.418Z,3.65
2022-07-29T01:47:47.919Z,4.05
2022-07-29T01:50:17.024Z,4.72
2022-07-29T01:52:55.244Z,4.38
2022-07-29T01:55:23.048Z,3.58
2022-07-29T01:57:50.022Z,3.78
2022-07-29T02:00:16.917Z,3.38
2022-07-29T02:02:44.644Z,3.95
2022-07-29T02:05:13.259Z,3.35
2022-07-29T02:07:41.069Z,3.55
2022-07-29T02:10:07.894Z,3.75
2022-07-29T02:12:34.683Z,2.42
2022-07-29T02:15:02.057Z,3.47
2022-07-29T02:17:30.067Z,3.00
2022-07-29T02:19:58.099Z,3.05
2022-07-29T02:22:25.174Z,2.83
2022-07-29T02:24:52.312Z,2.67
2022-07-29T02:27:19.779Z,2.50
2022-07-29T02:29:47.558Z,2.65
2022-07-29T02:32:15.366Z,2.85
2022-07-29T02:34:42.309Z,3.17
2022-07-29T02:37:10.288Z,2.53
2022-07-29T02:39:37.305Z,3.10
2022-07-29T02:42:05.011Z,5.25
2022-07-29T02:44:34.858Z,3.80
2022-07-29T02:47:10.176Z,3.17
2022-07-29T02:49:38.464Z,2.17
2022-07-29T02:52:07.644Z,1.92
2022-07-29T02:54:33.926Z,2.90
2022-07-29T02:57:02.972Z,3.55
2022-07-29T02:59:30.603Z,3.13
2022-07-29T03:01:58.760Z,2.45
2022-07-29T03:04:26.640Z,4.53
2022-07-29T03:06:53.719Z,4.55
2022-07-29T03:09:20.702Z,3.95
2022-07-29T03:11:50.541Z,3.00
2022-07-29T03:14:18.246Z,3.05
2022-07-29T03:16:44.865Z,4.90
2022-07-29T03:19:11.392Z,3.45
2022-07-29T03:21:37.679Z,3.72
2022-07-29T03:24:09.813Z,3.75
2022-07-29T03:26:36.848Z,3.08
2022-07-29T03:29:03.118Z,3.50
2022-07-29T03:31:29.476Z,3.45
2022-07-29T03:33:55.836Z,2.78
2022-07-29T03:36:22.132Z,2.47
2022-07-29T03:38:49.019Z,3.65
2022-07-29T03:41:15.486Z,2.72
2022-07-29T03:43:49.074Z,2.90
2022-07-29T03:46:17.450Z,2.08
2022-07-29T03:48:47.432Z,2.88
2022-07-29T03:51:13.936Z,3.70
2022-07-29T03:53:40.317Z,2.25
2022-07-29T03:56:07.667Z,3.97
2022-07-29T03:58:34.188Z,2.58
2022-07-29T04:01:00.588Z,1.75
2022-07-29T04:03:26.954Z,2.83
2022-07-29T04:06:03.686Z,3.17
2022-07-29T04:08:29.982Z,4.00
2022-07-29T04:10:56.334Z,3.50
2022-07-29T04:13:22.719Z,2.22
2022-07-29T04:15:49.070Z,2.67
2022-07-29T04:18:15.343Z,2.10
2022-07-29T04:20:41.628Z,3.00
2022-07-29T04:23:07.909Z,3.50
2022-07-29T04:25:34.207Z,2.88
2022-07-29T04:28:03.959Z,3.40
2022-07-29T04:30:31.280Z,3.90
2022-07-29T04:32:57.601Z,3.03
2022-07-29T04:35:23.903Z,2.88
2022-07-29T04:37:50.141Z,2.00
2022-07-29T04:40:16.471Z,2.45
2022-07-29T04:42:46.772Z,2.83
2022-07-29T04:45:14.203Z,3.03
2022-07-29T04:47:40.777Z,3.25
2022-07-29T04:50:08.063Z,3.72
2022-07-29T04:52:35.633Z,2.97
2022-07-29T04:55:02.240Z,4.18
2022-07-29T04:57:28.491Z,3.53
2022-07-29T04:59:54.730Z,2.88
2022-07-29T05:02:21.082Z,4.93
2022-07-29T05:04:47.342Z,2.63
2022-07-29T05:07:13.630Z,4.18
2022-07-29T05:09:39.919Z,3.30
2022-07-29T05:12:06.487Z,3.72
2022-07-29T05:14:32.775Z,4.88
2022-07-29T05:16:59.186Z,2.85
2022-07-29T05:19:25.434Z,3.25
2022-07-29T05:21:51.667Z,3.90
2022-07-29T05:24:18.249Z,2.97
2022-07-29T05:26:44.924Z,3.03
2022-07-29T05:29:42.703Z,3.63
2022-07-29T05:31:58.336Z,3.47
2022-07-29T05:34:25.922Z,3.40
2022-07-29T05:36:52.204Z,2.53
2022-07-29T05:39:18.485Z,1.88
2022-07-29T05:41:50.058Z,3.40
2022-07-29T05:44:18.479Z,2.80
2022-07-29T05:46:44.951Z,2.75
2022-07-29T05:49:11.339Z,4.30
2022-07-29T05:51:53.343Z,3.03
2022-07-29T05:54:19.597Z,4.03
2022-07-29T05:56:45.827Z,2.90
2022-07-29T05:59:17.896Z,3.67
2022-07-29T06:01:44.645Z,3.65
2022-07-29T06:04:11.008Z,3.03
2022-07-29T06:06:37.319Z,2.85
2022-07-29T06:09:12.575Z,2.00
2022-07-29T06:11:39.572Z,3.03
2022-07-29T06:14:05.907Z,3.55
2022-07-29T06:16:32.265Z,3.40
2022-07-29T06:18:58.629Z,4.25
2022-07-29T06:21:24.898Z,3.10
2022-07-29T06:23:51.187Z,2.92
2022-07-29T06:26:17.451Z,4.18
2022-07-29T06:28:43.694Z,4.10
2022-07-29T06:31:10.384Z,5.28
2022-07-29T06:33:36.905Z,4.43
2022-07-29T06:36:04.830Z,3.13
2022-07-29T06:38:34.257Z,3.90
2022-07-29T06:41:03.568Z,2.60
2022-07-29T06:43:51.809Z,3.33
2022-07-29T06:46:21.118Z,2.92
2022-07-29T06:48:48.599Z,3.90
2022-07-29T06:51:15.032Z,3.85
2022-07-29T06:53:59.344Z,4.18
2022-07-29T06:56:29.038Z,2.30
2022-07-29T06:58:55.292Z,4.30
2022-07-29T07:01:21.590Z,5.20
2022-07-29T07:03:48.401Z,4.28
2022-07-29T07:06:15.185Z,3.97
2022-07-29T07:08:41.600Z,6.03
2022-07-29T07:11:08.148Z,5.47
2022-07-29T07:13:35.386Z,4.38
2022-07-29T07:16:03.624Z,5.85
2022-07-29T07:18:29.918Z,4.63
2022-07-29T07:20:56.793Z,5.03
2022-07-29T07:23:23.167Z,4.18
2022-07-29T07:25:49.427Z,5.93
2022-07-29T07:28:15.659Z,4.15
2022-07-29T07:30:41.904Z,5.50
2022-07-29T07:33:08.148Z,4.53
2022-07-29T07:35:35.052Z,4.25
2022-07-29T07:38:01.360Z,6.68
2022-07-29T07:40:27.751Z,6.68
2022-07-29T07:42:54.062Z,3.97
2022-07-29T07:45:20.334Z,3.70
2022-07-29T07:47:46.601Z,6.80
2022-07-29T07:50:18.201Z,3.85
2022-07-29T07:52:48.920Z,7.05
2022-07-29T07:55:15.272Z,4.95
2022-07-29T07:57:41.719Z,3.63
2022-07-29T08:00:08.236Z,5.85
2022-07-29T08:02:34.529Z,5.20
2022-07-29T08:05:00.891Z,6.45
2022-07-29T08:07:27.139Z,2.95
2022-07-29T08:09:53.367Z,4.72
2022-07-29T08:12:19.606Z,6.55
2022-07-29T08:14:45.885Z,5.95
2022-07-29T08:17:12.154Z,5.00
2022-07-29T08:19:38.501Z,4.95
2022-07-29T08:22:04.835Z,3.88
2022-07-29T08:24:49.915Z,6.88
2022-07-29T08:27:41.928Z,6.15
2022-07-29T08:30:02.485Z,4.18
2022-07-29T08:32:51.888Z,5.75
2022-07-29T08:35:15.604Z,4.70
2022-07-29T08:37:42.802Z,3.80
2022-07-29T08:40:12.382Z,4.97
2022-07-29T08:42:38.721Z,4.75
2022-07-29T08:45:05.519Z,4.38
2022-07-29T08:47:31.879Z,7.25
2022-07-29T08:49:58.324Z,5.30
2022-07-29T08:52:26.450Z,3.75
2022-07-29T08:54:53.647Z,5.75
2022-07-29T08:57:20.658Z,4.38
2022-07-29T08:59:50.471Z,5.65
2022-07-29T09:02:20.666Z,6.63
2022-07-29T09:04:47.174Z,4.03
2022-07-29T09:07:16.976Z,4.07
2022-07-29T09:09:43.895Z,5.40
2022-07-29T09:12:12.356Z,5.55
2022-07-29T09:14:42.003Z,4.10
2022-07-29T09:17:08.788Z,6.43
2022-07-29T09:19:35.964Z,7.00
2022-07-29T09:22:04.710Z,7.15
2022-07-29T09:24:48.281Z,7.28
2022-07-29T09:27:21.716Z,5.18
2022-07-29T09:29:48.330Z,12.48
2022-07-29T09:32:14.648Z,15.45
2022-07-29T09:34:40.919Z,7.97
2022-07-29T09:37:07.301Z,15.20
2022-07-29T09:39:35.027Z,9.75
2022-07-29T09:42:02.621Z,9.45
2022-07-29T09:44:41.726Z,19.45
2022-07-29T09:47:08.066Z,9.98
2022-07-29T09:49:34.998Z,10.18
2022-07-29T09:52:05.503Z,7.90
2022-07-29T09:54:37.560Z,9.55
2022-07-29T09:57:05.295Z,7.00
2022-07-29T09:59:31.591Z,8.27
2022-07-29T10:01:58.395Z,5.60
2022-07-29T10:04:24.893Z,9.75
2022-07-29T10:07:03.893Z,16.23
2022-07-29T10:09:30.974Z,13.77
2022-07-29T10:12:11.773Z,15.52
2022-07-29T10:14:38.521Z,7.43
2022-07-29T10:17:05.368Z,6.75
2022-07-29T10:19:32.445Z,6.13
2022-07-29T10:21:59.590Z,8.02
2022-07-29T10:24:30.136Z,9.00
2022-07-29T10:26:56.926Z,6.45
2022-07-29T10:29:23.650Z,6.55
2022-07-29T10:31:53.626Z,7.60
2022-07-29T10:34:24.545Z,8.80
2022-07-29T10:37:09.895Z,15.68
2022-07-29T10:40:01.201Z,18.85
2022-07-29T10:42:34.326Z,11.48
2022-07-29T10:45:01.589Z,10.32
2022-07-29T10:47:28.289Z,16.83
2022-07-29T10:49:58.052Z,9.40
2022-07-29T10:52:30.256Z,16.35
2022-07-29T10:54:59.448Z,9.40
2022-07-29T10:57:57.728Z,10.38
2022-07-29T11:00:16.966Z,7.47
2022-07-29T11:02:44.837Z,7.75
2022-07-29T11:05:11.515Z,5.85
2022-07-29T11:07:46.012Z,5.80
2022-07-29T11:10:12.832Z,6.35
2022-07-29T11:12:40.419Z,6.03
2022-07-29T11:15:09.003Z,8.10
2022-07-29T11:17:54.275Z,5.88
2022-07-29T11:20:39.936Z,8.98
2022-07-29T11:23:25.714Z,6.20
2022-07-29T11:26:10.405Z,7.20
2022-07-29T11:28:43.398Z,6.43
2022-07-29T11:31:10.955Z,4.18
2022-07-29T11:33:56.439Z,5.72
2022-07-29T11:39:36.257Z,5.18
2022-07-29T11:42:30.483Z,7.50
2022-07-29T11:44:59.015Z,6.93
2022-07-29T11:47:41.085Z,6.93
2022-07-29T11:50:13.881Z,5.90
2022-07-29T13:32:09.458Z,44.60
2022-07-29T13:34:36.827Z,68.95
2022-07-29T13:37:03.311Z,57.03
2022-07-29T13:39:29.661Z,53.17
2022-07-29T13:41:56.489Z,106.05
2022-07-29T13:44:24.024Z,131.50
2022-07-29T13:46:50.987Z,79.35
2022-07-29T13:49:17.338Z,65.95
2022-07-29T13:51:43.879Z,62.42
2022-07-29T13:54:10.259Z,50.33
2022-07-29T13:56:36.593Z,85.82
2022-07-29T13:59:03.064Z,48.55
2022-07-29T14:01:31.297Z,44.70
2022-07-29T14:03:57.905Z,37.13
2022-07-29T14:06:24.463Z,39.28
2022-07-29T14:08:51.806Z,33.42
2022-07-29T14:11:18.121Z,39.65
2022-07-29T14:13:47.696Z,41.10
2022-07-29T14:16:15.259Z,32.17
2022-07-29T14:18:41.618Z,53.08
2022-07-29T14:21:07.968Z,49.10
2022-07-29T14:23:34.505Z,61.05
2022-07-29T14:26:01.200Z,67.88
2022-07-29T14:28:28.943Z,83.88
2022-07-29T14:30:55.293Z,64.50
2022-07-29T14:33:21.608Z,70.88
2022-07-29T14:35:48.091Z,57.60
2022-07-29T14:38:14.386Z,126.00
2022-07-29T14:40:40.692Z,145.07
2022-07-29T14:43:07.012Z,99.55
2022-07-29T14:45:33.471Z,92.22
2022-07-29T14:48:00.843Z,83.93
2022-07-29T14:50:31.565Z,68.57
2022-07-29T14:52:58.620Z,89.03
2022-07-29T14:55:24.959Z,61.90
2022-07-29T14:57:51.262Z,53.95
2022-07-29T15:00:18.300Z,52.63
2022-07-29T15:03:00.949Z,45.95
2022-07-29T15:05:28.101Z,35.45
2022-07-29T15:07:54.645Z,39.63
2022-07-29T15:10:20.980Z,46.67
2022-07-29T15:12:47.267Z,107.88
2022-07-29T15:15:13.705Z,127.85
2022-07-29T15:17:40.053Z,92.38
2022-07-29T15:20:06.656Z,109.82
2022-07-29T15:22:32.978Z,99.78
2022-07-29T15:24:59.323Z,79.25
2022-07-29T15:27:26.281Z,88.93
2022-07-29T15:29:52.599Z,57.97
2022-07-29T15:32:18.988Z,78.75
2022-07-29T15:34:45.402Z,79.78
2022-07-29T15:37:12.429Z,62.63
2022-07-29T15:39:38.772Z,51.80
2022-07-29T15:42:05.439Z,49.97
2022-07-29T15:44:31.810Z,44.88
2022-07-29T15:47:03.861Z,55.13
2022-07-29T15:49:47.643Z,43.55
2022-07-29T15:52:15.933Z,49.63
2022-07-29T15:54:42.391Z,84.47
2022-07-29T15:57:10.089Z,61.67
2022-07-29T15:59:36.464Z,90.00
2022-07-29T16:02:02.906Z,74.63
2022-07-29T16:04:29.295Z,50.42
2022-07-29T16:06:56.023Z,58.78
2022-07-29T16:09:23.137Z,52.55
2022-07-29T16:11:50.957Z,54.92
2022-07-29T16:14:18.026Z,64.43
2022-07-29T16:16:44.611Z,89.38
2022-07-29T16:19:11.576Z,147.40
2022-07-29T16:21:38.316Z,83.18
2022-07-29T16:24:05.668Z,82.15
2022-07-29T16:26:32.463Z,78.60
2022-07-29T16:28:59.632Z,93.50
2022-07-29T16:31:26.280Z,70.43
2022-07-29T16:33:54.851Z,106.82
2022-07-29T16:36:21.864Z,106.40
2022-07-29T16:38:51.162Z,128.93
2022-07-29T16:41:17.480Z,112.95
2022-07-29T16:43:43.825Z,108.78
2022-07-29T16:46:14.002Z,77.97
2022-07-29T16:48:45.601Z,53.13
2022-07-29T16:51:12.119Z,46.63
2022-07-29T16:53:40.983Z,41.50
2022-07-29T16:56:07.333Z,35.03
2022-07-29T16:58:40.508Z,32.78
2022-07-29T17:01:09.813Z,33.28
2022-07-29T17:03:36.343Z,44.17
2022-07-29T17:06:02.705Z,71.45
2022-07-29T17:08:29.063Z,70.40
2022-07-29T17:10:55.354Z,71.03
2022-07-29T17:13:21.740Z,57.35
2022-07-29T17:15:50.556Z,70.82
2022-07-29T17:18:17.029Z,67.15
2022-07-29T17:20:43.349Z,74.47
2022-07-29T17:23:09.721Z,70.00
2022-07-29T17:25:36.308Z,75.40
2022-07-29T17:28:02.612Z,55.10
2022-07-29T17:30:29.626Z,53.03
2022-07-29T17:32:56.070Z,48.13
2022-07-29T17:35:40.788Z,28.42
2022-07-29T17:38:07.076Z,32.75
2022-07-29T17:40:33.392Z,32.85
2022-07-29T17:42:59.753Z,24.33
2022-07-29T17:45:26.228Z,22.90
2022-07-29T17:48:12.565Z,20.05
2022-07-29T17:50:38.869Z,19.67
2022-07-29T17:53:05.327Z,17.38
2022-07-29T17:55:44.344Z,11.57
2022-07-29T17:58:10.732Z,21.65
2022-07-29T18:00:37.142Z,9.07
2022-07-29T18:03:03.631Z,14.70
2022-07-29T18:05:30.005Z,15.20
2022-07-29T18:07:56.349Z,12.57
2022-07-29T18:10:22.924Z,10.05
2022-07-29T18:12:49.212Z,13.05
2022-07-29T18:15:15.642Z,8.35
2022-07-29T18:17:52.698Z,9.88
2022-07-29T18:20:23.888Z,10.65
2022-07-29T18:22:51.072Z,10.95
2022-07-29T18:25:17.412Z,11.20
2022-07-29T18:27:43.726Z,7.00
2022-07-29T18:30:10.173Z,9.32
2022-07-29T18:32:36.601Z,8.43
2022-07-29T18:35:05.072Z,5.97
2022-07-29T18:38:00.815Z,24.27
2022-07-29T18:40:23.618Z,68.18
2022-07-29T18:42:49.926Z,83.95
2022-07-29T18:45:19.369Z,62.35
2022-07-29T18:47:47.451Z,67.28
2022-07-29T18:50:14.618Z,313.65
2022-07-29T18:52:41.005Z,256.65
2022-07-29T18:55:07.696Z,153.43
2022-07-29T18:57:54.117Z,219.68
2022-07-29T19:02:46.708Z,169.52
2022-07-29T19:05:13.076Z,174.70
2022-07-29T19:07:39.464Z,177.70
2022-07-29T19:10:06.096Z,149.90
2022-07-29T19:12:35.066Z,107.55
2022-07-29T19:15:01.469Z,94.10
2022-07-29T19:17:27.763Z,92.57
2022-07-29T19:19:54.047Z,85.10
2022-07-29T19:22:21.833Z,89.20
2022-07-29T19:24:51.300Z,86.32
2022-07-29T19:27:17.636Z,84.38
2022-07-29T19:29:44.024Z,78.32
2022-07-29T19:32:10.351Z,60.90
2022-07-29T19:34:37.374Z,51.65
2022-07-29T19:37:03.777Z,37.70
2022-07-29T19:39:34.933Z,35.45
2022-07-29T19:42:03.422Z,29.58
2022-07-29T19:44:29.945Z,27.63
2022-07-29T19:46:56.522Z,29.90
2022-07-29T19:49:26.301Z,24.10
2022-07-29T19:51:53.417Z,22.00
2022-07-29T19:54:20.703Z,20.30
2022-07-29T19:56:47.095Z,20.15
2022-07-29T19:59:13.373Z,16.63
2022-07-29T20:01:39.739Z,18.92
2022-07-29T20:04:06.142Z,19.42
2022-07-29T20:06:32.566Z,12.95
2022-07-29T20:08:59.176Z,17.55
2022-07-29T20:11:26.424Z,12.25
2022-07-29T20:13:52.756Z,13.38
2022-07-29T20:16:19.115Z,10.60
2022-07-29T20:18:45.533Z,10.82
2022-07-29T20:21:11.974Z,12.18
2022-07-29T20:23:38.425Z,7.57
2022-07-29T20:26:09.239Z,9.65
2022-07-29T20:28:35.966Z,13.77
2022-07-29T20:31:02.347Z,7.50
2022-07-29T20:33:28.723Z,11.05
2022-07-29T20:35:55.051Z,8.15
2022-07-29T20:38:21.373Z,9.20
2022-07-29T20:40:47.702Z,11.38
2022-07-29T20:43:14.026Z,7.07
2022-07-29T20:45:40.427Z,6.68
2022-07-29T20:48:07.039Z,9.38
2022-07-29T20:50:34.713Z,10.20
2022-07-29T20:53:01.177Z,9.38
2022-07-29T20:55:27.762Z,8.40
2022-07-29T20:57:54.034Z,6.32
2022-07-29T21:00:20.454Z,6.93
2022-07-29T21:02:47.236Z,7.53
2022-07-29T21:05:13.773Z,7.07
2022-07-29T21:07:40.192Z,9.98
2022-07-29T21:10:06.648Z,15.68
2022-07-29T21:12:33.785Z,17.52
2022-07-29T21:15:00.210Z,12.57
2022-07-29T21:17:26.626Z,17.40
2022-07-29T21:19:53.532Z,23.02
2022-07-29T21:22:21.707Z,23.80
2022-07-29T21:24:48.505Z,23.25
2022-07-29T21:27:33.577Z,21.42
2022-07-29T21:29:59.903Z,22.42
2022-07-29T21:32:30.149Z,20.63
2022-07-29T21:34:57.059Z,28.73
2022-07-29T21:37:23.382Z,23.27
2022-07-29T21:39:49.833Z,19.58
2022-07-29T21:42:16.146Z,24.20
2022-07-29T21:44:42.642Z,16.33
2022-07-29T21:47:09.549Z,17.42
2022-07-29T21:49:35.964Z,21.15
2022-07-29T21:52:04.183Z,24.42
2022-07-29T21:54:31.232Z,24.63
2022-07-29T21:56:57.614Z,27.88
2022-07-29T21:59:24.347Z,20.55
2022-07-29T22:01:50.759Z,17.70
2022-07-29T22:04:17.261Z,19.48
2022-07-29T22:06:43.609Z,23.92
2022-07-29T22:09:10.117Z,27.15
2022-07-29T22:11:36.733Z,14.75
2022-07-29T22:14:03.838Z,19.67
2022-07-29T22:16:30.296Z,18.83
2022-07-29T22:18:56.664Z,15.98
2022-07-29T22:21:22.920Z,19.80
2022-07-29T22:23:49.260Z,13.15
2022-07-29T22:26:15.582Z,15.50
2022-07-29T22:28:41.907Z,13.45
2022-07-29T22:31:08.382Z,17.83
2022-07-29T22:33:34.747Z,15.27
2022-07-29T22:36:01.088Z,16.75
2022-07-29T22:38:27.384Z,11.23
2022-07-29T22:40:53.732Z,10.38
2022-07-29T22:43:27.042Z,11.50
2022-07-29T22:45:53.442Z,9.65
2022-07-29T22:48:19.775Z,9.60
2022-07-29T22:50:46.241Z,12.40
2022-07-29T22:53:12.532Z,9.20
2022-07-29T22:55:39.024Z,14.95
2022-07-29T22:58:10.608Z,10.45
2022-07-29T23:00:37.025Z,9.80
2022-07-29T23:03:03.399Z,11.68
2022-07-29T23:05:29.698Z,6.57
2022-07-29T23:07:56.064Z,10.85
2022-07-29T23:10:22.755Z,7.07
2022-07-29T23:12:49.211Z,8.52
2022-07-29T23:15:15.494Z,8.18
2022-07-29T23:17:41.847Z,7.38
2022-07-29T23:20:09.777Z,7.43
2022-07-29T23:22:36.329Z,9.55
2022-07-29T23:25:03.138Z,8.23
2022-07-29T23:27:29.432Z,7.35
2022-07-29T23:29:55.734Z,4.30
2022-07-29T23:32:22.059Z,9.07
2022-07-29T23:34:48.339Z,8.48
2022-07-29T23:37:14.647Z,6.47
2022-07-29T23:39:40.968Z,7.15
2022-07-29T23:42:07.293Z,6.90
2022-07-29T23:44:33.701Z,7.57
2022-07-29T23:47:00.283Z,7.22
2022-07-29T23:49:26.834Z,7.13
2022-07-29T23:51:53.127Z,5.65
2022-07-29T23:54:19.456Z,6.28
2022-07-29T23:56:46.481Z,7.30
2022-07-29T23:59:12.928Z,4.70
